sensor_id;sensor_type;location;lat;lon;timestamp;pressure;altitude;pressure_sealevel;temperature;humidity
27334;BME280;14817;57.104;-2.094;2023-04-02T00:09:01;101431.03;;;5.12;100.00
27334;BME280;14817;57.104;-2.094;2023-04-02T00:11:31;101430.09;;;5.13;100.00
27334;BME280;14817;57.104;-2.094;2023-04-02T00:14:02;101428.88;;;5.04;100.00
27334;BME280;14817;57.104;-2.094;2023-04-02T00:16:31;101432.56;;;5.02;100.00
27334;BME280;14817;57.104;-2.094;2023-04-02T00:19:03;101431.81;;;5.00;100.00
27334;BME280;14817;57.104;-2.094;2023-04-02T00:21:33;101439.28;;;5.07;100.00
27334;BME280;14817;57.104;-2.094;2023-04-02T00:24:13;101435.97;;;5.18;100.00
27334;BME280;14817;57.104;-2.094;2023-04-02T00:26:45;101447.09;;;5.25;100.00
27334;BME280;14817;57.104;-2.094;2023-04-02T00:29:13;101444.22;;;5.28;100.00
27334;BME280;14817;57.104;-2.094;2023-04-02T00:31:45;101440.53;;;5.30;100.00
27334;BME280;14817;57.104;-2.094;2023-04-02T00:34:23;101447.28;;;5.36;100.00
27334;BME280;14817;57.104;-2.094;2023-04-02T00:36:52;101450.00;;;5.35;100.00
27334;BME280;14817;57.104;-2.094;2023-04-02T00:39:22;101444.63;;;5.36;100.00
27334;BME280;14817;57.104;-2.094;2023-04-02T00:41:52;101449.72;;;5.39;100.00
27334;BME280;14817;57.104;-2.094;2023-04-02T00:44:38;101453.81;;;5.45;100.00
27334;BME280;14817;57.104;-2.094;2023-04-02T00:47:23;101457.31;;;5.45;100.00
27334;BME280;14817;57.104;-2.094;2023-04-02T00:50:04;101464.22;;;5.48;100.00
27334;BME280;14817;57.104;-2.094;2023-04-02T00:52:32;101472.50;;;5.43;100.00
27334;BME280;14817;57.104;-2.094;2023-04-02T00:55:17;101471.72;;;5.41;100.00
27334;BME280;14817;57.104;-2.094;2023-04-02T00:57:48;101472.31;;;5.46;100.00
27334;BME280;14817;57.104;-2.094;2023-04-02T01:00:21;101484.56;;;5.49;100.00
27334;BME280;14817;57.104;-2.094;2023-04-02T01:08:38;101487.00;;;5.52;100.00
27334;BME280;14817;57.104;-2.094;2023-04-02T01:19:08;101498.47;;;5.52;100.00
27334;BME280;14817;57.104;-2.094;2023-04-02T01:24:23;101502.09;;;5.51;100.00
27334;BME280;14817;57.104;-2.094;2023-04-02T01:32:14;101517.81;;;5.55;100.00
27334;BME280;14817;57.104;-2.094;2023-04-02T01:34:45;101519.72;;;5.52;100.00
27334;BME280;14817;57.104;-2.094;2023-04-02T01:37:37;101518.59;;;5.57;100.00
27334;BME280;14817;57.104;-2.094;2023-04-02T01:40:31;101515.16;;;5.55;100.00
27334;BME280;14817;57.104;-2.094;2023-04-02T01:45:36;101520.59;;;5.53;100.00
27334;BME280;14817;57.104;-2.094;2023-04-02T01:48:16;101518.72;;;5.55;100.00
27334;BME280;14817;57.104;-2.094;2023-04-02T01:50:47;101514.31;;;5.54;100.00
27334;BME280;14817;57.104;-2.094;2023-04-02T01:53:17;101521.44;;;5.53;100.00
27334;BME280;14817;57.104;-2.094;2023-04-02T01:58:18;101525.25;;;5.49;100.00
27334;BME280;14817;57.104;-2.094;2023-04-02T02:00:50;101532.09;;;5.53;100.00
27334;BME280;14817;57.104;-2.094;2023-04-02T02:03:19;101525.03;;;5.52;100.00
27334;BME280;14817;57.104;-2.094;2023-04-02T02:05:47;101529.34;;;5.55;100.00
27334;BME280;14817;57.104;-2.094;2023-04-02T02:09:06;101535.66;;;5.52;100.00
27334;BME280;14817;57.104;-2.094;2023-04-02T02:11:15;101552.38;;;5.55;100.00
27334;BME280;14817;57.104;-2.094;2023-04-02T02:13:49;101554.09;;;5.56;100.00
27334;BME280;14817;57.104;-2.094;2023-04-02T02:16:18;101554.38;;;5.51;100.00
27334;BME280;14817;57.104;-2.094;2023-04-02T02:18:52;101559.56;;;5.52;100.00
27334;BME280;14817;57.104;-2.094;2023-04-02T02:23:58;101562.25;;;5.52;100.00
27334;BME280;14817;57.104;-2.094;2023-04-02T02:26:27;101560.53;;;5.51;100.00
27334;BME280;14817;57.104;-2.094;2023-04-02T02:28:56;101565.84;;;5.51;100.00
27334;BME280;14817;57.104;-2.094;2023-04-02T02:31:28;101565.84;;;5.51;100.00
27334;BME280;14817;57.104;-2.094;2023-04-02T02:34:10;101566.63;;;5.53;100.00
27334;BME280;14817;57.104;-2.094;2023-04-02T02:39:16;101566.06;;;5.48;100.00
27334;BME280;14817;57.104;-2.094;2023-04-02T02:41:49;101571.38;;;5.48;100.00
27334;BME280;14817;57.104;-2.094;2023-04-02T02:44:24;101581.25;;;5.46;100.00
27334;BME280;14817;57.104;-2.094;2023-04-02T02:46:57;101578.59;;;5.46;100.00
27334;BME280;14817;57.104;-2.094;2023-04-02T02:49:29;101573.06;;;5.49;100.00
27334;BME280;14817;57.104;-2.094;2023-04-02T02:52:13;101577.44;;;5.50;100.00
27334;BME280;14817;57.104;-2.094;2023-04-02T02:55:12;101576.69;;;5.48;100.00
27334;BME280;14817;57.104;-2.094;2023-04-02T02:57:50;101591.75;;;5.48;100.00
27334;BME280;14817;57.104;-2.094;2023-04-02T03:00:20;101592.63;;;5.48;100.00
27334;BME280;14817;57.104;-2.094;2023-04-02T03:02:53;101594.31;;;5.49;100.00
27334;BME280;14817;57.104;-2.094;2023-04-02T03:05:26;101588.31;;;5.46;100.00
27334;BME280;14817;57.104;-2.094;2023-04-02T03:08:02;101598.09;;;5.45;100.00
27334;BME280;14817;57.104;-2.094;2023-04-02T03:16:33;101613.13;;;5.46;100.00
27334;BME280;14817;57.104;-2.094;2023-04-02T03:19:22;101617.47;;;5.47;100.00
27334;BME280;14817;57.104;-2.094;2023-04-02T03:22:34;101617.31;;;5.50;100.00
27334;BME280;14817;57.104;-2.094;2023-04-02T03:25:26;101621.84;;;5.48;100.00
27334;BME280;14817;57.104;-2.094;2023-04-02T03:28:03;101625.63;;;5.44;100.00
27334;BME280;14817;57.104;-2.094;2023-04-02T03:30:36;101630.19;;;5.42;100.00
27334;BME280;14817;57.104;-2.094;2023-04-02T03:33:16;101634.38;;;5.46;100.00
27334;BME280;14817;57.104;-2.094;2023-04-02T03:37:12;101636.16;;;5.46;100.00
27334;BME280;14817;57.104;-2.094;2023-04-02T03:39:16;101651.06;;;5.48;100.00
27334;BME280;14817;57.104;-2.094;2023-04-02T03:41:55;101647.75;;;5.45;100.00
27334;BME280;14817;57.104;-2.094;2023-04-02T03:44:37;101651.25;;;5.45;100.00
27334;BME280;14817;57.104;-2.094;2023-04-02T03:47:32;101652.97;;;5.46;100.00
27334;BME280;14817;57.104;-2.094;2023-04-02T03:52:35;101663.00;;;5.41;100.00
27334;BME280;14817;57.104;-2.094;2023-04-02T03:55:12;101664.72;;;5.42;100.00
27334;BME280;14817;57.104;-2.094;2023-04-02T03:57:55;101666.41;;;5.43;100.00
27334;BME280;14817;57.104;-2.094;2023-04-02T04:00:35;101668.91;;;5.46;100.00
27334;BME280;14817;57.104;-2.094;2023-04-02T04:03:30;101667.03;;;5.48;100.00
27334;BME280;14817;57.104;-2.094;2023-04-02T04:08:43;101669.06;;;5.43;100.00
27334;BME280;14817;57.104;-2.094;2023-04-02T04:11:15;101667.25;;;5.44;100.00
27334;BME280;14817;57.104;-2.094;2023-04-02T04:13:48;101674.09;;;5.48;100.00
27334;BME280;14817;57.104;-2.094;2023-04-02T04:16:27;101677.66;;;5.48;100.00
27334;BME280;14817;57.104;-2.094;2023-04-02T04:19:02;101681.50;;;5.43;100.00
27334;BME280;14817;57.104;-2.094;2023-04-02T04:21:32;101684.84;;;5.46;100.00
27334;BME280;14817;57.104;-2.094;2023-04-02T04:24:23;101683.31;;;5.42;100.00
27334;BME280;14817;57.104;-2.094;2023-04-02T04:27:01;101684.31;;;5.40;100.00
27334;BME280;14817;57.104;-2.094;2023-04-02T04:32:33;101690.31;;;5.43;100.00
27334;BME280;14817;57.104;-2.094;2023-04-02T04:35:25;101682.44;;;5.42;100.00
27334;BME280;14817;57.104;-2.094;2023-04-02T04:38:06;101685.97;;;5.42;100.00
27334;BME280;14817;57.104;-2.094;2023-04-02T04:40:48;101690.31;;;5.43;100.00
27334;BME280;14817;57.104;-2.094;2023-04-02T04:43:47;101692.13;;;5.43;100.00
27334;BME280;14817;57.104;-2.094;2023-04-02T04:46:38;101693.06;;;5.42;100.00
27334;BME280;14817;57.104;-2.094;2023-04-02T04:52:34;101702.06;;;5.39;100.00
27334;BME280;14817;57.104;-2.094;2023-04-02T04:54:37;101716.47;;;5.35;100.00
27334;BME280;14817;57.104;-2.094;2023-04-02T04:57:37;101704.56;;;5.42;100.00
27334;BME280;14817;57.104;-2.094;2023-04-02T05:01:19;101707.13;;;5.44;100.00
27334;BME280;14817;57.104;-2.094;2023-04-02T05:06:00;101710.72;;;5.43;100.00
27334;BME280;14817;57.104;-2.094;2023-04-02T05:08:32;101716.03;;;5.43;100.00
27334;BME280;14817;57.104;-2.094;2023-04-02T05:11:05;101710.72;;;5.43;100.00
27334;BME280;14817;57.104;-2.094;2023-04-02T05:16:19;101732.84;;;5.43;100.00
27334;BME280;14817;57.104;-2.094;2023-04-02T05:18:58;101731.97;;;5.43;100.00
27334;BME280;14817;57.104;-2.094;2023-04-02T05:21:48;101735.50;;;5.43;100.00
27334;BME280;14817;57.104;-2.094;2023-04-02T05:26:50;101739.00;;;5.44;100.00
27334;BME280;14817;57.104;-2.094;2023-04-02T05:29:30;101746.13;;;5.43;100.00
27334;BME280;14817;57.104;-2.094;2023-04-02T05:32:05;101747.84;;;5.44;100.00
27334;BME280;14817;57.104;-2.094;2023-04-02T05:34:37;101747.56;;;5.49;100.00
27334;BME280;14817;57.104;-2.094;2023-04-02T05:37:12;101749.97;;;5.53;100.00
27334;BME280;14817;57.104;-2.094;2023-04-02T05:39:44;101756.03;;;5.56;100.00
27334;BME280;14817;57.104;-2.094;2023-04-02T05:42:17;101758.78;;;5.54;100.00
27334;BME280;14817;57.104;-2.094;2023-04-02T05:47:30;101763.81;;;5.59;100.00
27334;BME280;14817;57.104;-2.094;2023-04-02T05:52:40;101769.03;;;5.60;100.00
27334;BME280;14817;57.104;-2.094;2023-04-02T05:57:49;101777.03;;;5.60;100.00
27334;BME280;14817;57.104;-2.094;2023-04-02T06:03:16;101786.59;;;5.63;100.00
27334;BME280;14817;57.104;-2.094;2023-04-02T06:05:52;101786.81;;;5.60;100.00
27334;BME280;14817;57.104;-2.094;2023-04-02T06:08:28;101796.59;;;5.59;100.00
27334;BME280;14817;57.104;-2.094;2023-04-02T06:11:12;101798.38;;;5.59;100.00
27334;BME280;14817;57.104;-2.094;2023-04-02T06:13:41;101794.09;;;5.56;100.00
27334;BME280;14817;57.104;-2.094;2023-04-02T06:16:12;101792.13;;;5.60;100.00
27334;BME280;14817;57.104;-2.094;2023-04-02T06:18:42;101799.41;;;5.56;100.00
27334;BME280;14817;57.104;-2.094;2023-04-02T06:21:12;101801.22;;;5.56;100.00
27334;BME280;14817;57.104;-2.094;2023-04-02T06:23:48;101806.34;;;5.59;100.00
27334;BME280;14817;57.104;-2.094;2023-04-02T06:26:34;101801.03;;;5.59;100.00
27334;BME280;14817;57.104;-2.094;2023-04-02T06:31:59;101813.03;;;5.66;100.00
27334;BME280;14817;57.104;-2.094;2023-04-02T06:34:29;101799.75;;;5.66;100.00
27334;BME280;14817;57.104;-2.094;2023-04-02T06:39:58;101818.00;;;5.72;100.00
27334;BME280;14817;57.104;-2.094;2023-04-02T06:42:37;101822.91;;;5.78;100.00
27334;BME280;14817;57.104;-2.094;2023-04-02T06:45:23;101823.19;;;5.73;100.00
27334;BME280;14817;57.104;-2.094;2023-04-02T06:48:28;101829.28;;;5.76;100.00
27334;BME280;14817;57.104;-2.094;2023-04-02T06:51:09;101829.97;;;5.79;100.00
27334;BME280;14817;57.104;-2.094;2023-04-02T06:53:41;101832.53;;;5.81;100.00
27334;BME280;14817;57.104;-2.094;2023-04-02T06:56:37;101829.78;;;5.82;100.00
27334;BME280;14817;57.104;-2.094;2023-04-02T06:59:08;101835.28;;;5.79;100.00
27334;BME280;14817;57.104;-2.094;2023-04-02T07:01:41;101836.06;;;5.81;100.00
27334;BME280;14817;57.104;-2.094;2023-04-02T07:04:09;101843.69;;;5.87;100.00
27334;BME280;14817;57.104;-2.094;2023-04-02T07:06:40;101845.38;;;5.88;100.00
27334;BME280;14817;57.104;-2.094;2023-04-02T07:09:09;101840.94;;;5.89;100.00
27334;BME280;14817;57.104;-2.094;2023-04-02T07:11:39;101848.63;;;5.93;100.00
27334;BME280;14817;57.104;-2.094;2023-04-02T07:14:11;101852.88;;;5.98;100.00
27334;BME280;14817;57.104;-2.094;2023-04-02T07:16:39;101861.84;;;5.95;100.00
27334;BME280;14817;57.104;-2.094;2023-04-02T07:19:15;101854.56;;;5.99;100.00
27334;BME280;14817;57.104;-2.094;2023-04-02T07:21:42;101866.66;;;6.04;100.00
27334;BME280;14817;57.104;-2.094;2023-04-02T07:24:09;101862.00;;;6.08;100.00
27334;BME280;14817;57.104;-2.094;2023-04-02T07:26:36;101862.19;;;6.05;100.00
27334;BME280;14817;57.104;-2.094;2023-04-02T07:29:06;101867.31;;;6.08;100.00
27334;BME280;14817;57.104;-2.094;2023-04-02T07:31:33;101867.91;;;6.13;100.00
27334;BME280;14817;57.104;-2.094;2023-04-02T07:34:00;101875.22;;;6.09;100.00
27334;BME280;14817;57.104;-2.094;2023-04-02T07:36:28;101877.72;;;6.12;100.00
27334;BME280;14817;57.104;-2.094;2023-04-02T07:38:56;101878.72;;;6.10;100.00
27334;BME280;14817;57.104;-2.094;2023-04-02T07:41:22;101877.59;;;6.14;100.00
27334;BME280;14817;57.104;-2.094;2023-04-02T07:43:49;101880.25;;;6.14;100.00
27334;BME280;14817;57.104;-2.094;2023-04-02T07:46:16;101886.34;;;6.16;100.00
27334;BME280;14817;57.104;-2.094;2023-04-02T07:48:45;101887.09;;;6.18;100.00
27334;BME280;14817;57.104;-2.094;2023-04-02T07:51:23;101891.31;;;6.22;100.00
27334;BME280;14817;57.104;-2.094;2023-04-02T07:53:51;101895.09;;;6.18;100.00
27334;BME280;14817;57.104;-2.094;2023-04-02T07:56:23;101891.31;;;6.22;100.00
27334;BME280;14817;57.104;-2.094;2023-04-02T07:58:50;101905.38;;;6.24;100.00
27334;BME280;14817;57.104;-2.094;2023-04-02T08:01:23;101904.16;;;6.30;100.00
27334;BME280;14817;57.104;-2.094;2023-04-02T08:03:52;101914.13;;;6.26;100.00
27334;BME280;14817;57.104;-2.094;2023-04-02T08:06:20;101913.19;;;6.27;100.00
27334;BME280;14817;57.104;-2.094;2023-04-02T08:08:48;101909.06;;;6.22;100.00
27334;BME280;14817;57.104;-2.094;2023-04-02T08:11:15;101909.91;;;6.22;100.00
27334;BME280;14817;57.104;-2.094;2023-04-02T08:13:41;101913.28;;;6.26;100.00
27334;BME280;14817;57.104;-2.094;2023-04-02T08:16:08;101917.34;;;6.31;100.00
27334;BME280;14817;57.104;-2.094;2023-04-02T08:18:36;101914.34;;;6.38;100.00
27334;BME280;14817;57.104;-2.094;2023-04-02T08:21:07;101917.00;;;6.38;100.00
27334;BME280;14817;57.104;-2.094;2023-04-02T08:23:36;101923.97;;;6.40;100.00
27334;BME280;14817;57.104;-2.094;2023-04-02T08:26:04;101925.47;;;6.44;100.00
27334;BME280;14817;57.104;-2.094;2023-04-02T08:28:31;101927.28;;;6.44;100.00
27334;BME280;14817;57.104;-2.094;2023-04-02T08:30:58;101925.03;;;6.52;100.00
27334;BME280;14817;57.104;-2.094;2023-04-02T08:33:24;101931.13;;;6.54;100.00
27334;BME280;14817;57.104;-2.094;2023-04-02T08:35:52;101930.19;;;6.55;100.00
27334;BME280;14817;57.104;-2.094;2023-04-02T08:38:20;101934.34;;;6.59;100.00
27334;BME280;14817;57.104;-2.094;2023-04-02T08:40:50;101930.31;;;6.68;100.00
27334;BME280;14817;57.104;-2.094;2023-04-02T08:46:26;101935.53;;;6.84;100.00
27334;BME280;14817;57.104;-2.094;2023-04-02T08:49:01;101928.59;;;6.81;100.00
27334;BME280;14817;57.104;-2.094;2023-04-02T08:51:34;101932.78;;;7.00;100.00
27334;BME280;14817;57.104;-2.094;2023-04-02T08:54:10;101931.38;;;7.08;100.00
27334;BME280;14817;57.104;-2.094;2023-04-02T08:56:46;101937.44;;;7.10;100.00
27334;BME280;14817;57.104;-2.094;2023-04-02T08:59:27;101940.50;;;7.19;100.00
27334;BME280;14817;57.104;-2.094;2023-04-02T09:04:30;101949.84;;;7.26;100.00
27334;BME280;14817;57.104;-2.094;2023-04-02T09:06:58;101953.06;;;7.31;100.00
27334;BME280;14817;57.104;-2.094;2023-04-02T09:09:26;101947.91;;;7.42;100.00
27334;BME280;14817;57.104;-2.094;2023-04-02T09:11:57;101954.75;;;7.46;100.00
27334;BME280;14817;57.104;-2.094;2023-04-02T09:17:23;101960.63;;;7.66;100.00
27334;BME280;14817;57.104;-2.094;2023-04-02T09:22:28;101961.53;;;7.52;100.00
27334;BME280;14817;57.104;-2.094;2023-04-02T09:24:58;101971.72;;;7.60;100.00
27334;BME280;14817;57.104;-2.094;2023-04-02T09:27:31;101976.16;;;7.73;100.00
27334;BME280;14817;57.104;-2.094;2023-04-02T09:33:01;101982.56;;;7.56;100.00
27334;BME280;14817;57.104;-2.094;2023-04-02T09:35:52;101983.22;;;7.60;100.00
27334;BME280;14817;57.104;-2.094;2023-04-02T09:38:24;101983.88;;;7.64;100.00
27334;BME280;14817;57.104;-2.094;2023-04-02T09:41:05;101982.94;;;7.65;100.00
27334;BME280;14817;57.104;-2.094;2023-04-02T09:43:36;101990.63;;;7.55;100.00
27334;BME280;14817;57.104;-2.094;2023-04-02T09:46:17;101992.84;;;7.63;100.00
27334;BME280;14817;57.104;-2.094;2023-04-02T09:48:56;101999.31;;;7.73;100.00
27334;BME280;14817;57.104;-2.094;2023-04-02T09:51:31;102003.19;;;7.67;100.00
27334;BME280;14817;57.104;-2.094;2023-04-02T09:56:35;102018.44;;;7.65;100.00
27334;BME280;14817;57.104;-2.094;2023-04-02T10:10:00;102027.31;;;7.37;100.00
27334;BME280;14817;57.104;-2.094;2023-04-02T10:12:29;102021.22;;;7.35;100.00
27334;BME280;14817;57.104;-2.094;2023-04-02T10:15:02;102032.53;;;7.53;100.00
27334;BME280;14817;57.104;-2.094;2023-04-02T10:17:31;102038.91;;;7.36;100.00
27334;BME280;14817;57.104;-2.094;2023-04-02T10:20:02;102036.34;;;7.49;100.00
27334;BME280;14817;57.104;-2.094;2023-04-02T10:22:32;102036.94;;;7.54;100.00
27334;BME280;14817;57.104;-2.094;2023-04-02T10:25:00;102043.97;;;7.55;100.00
27334;BME280;14817;57.104;-2.094;2023-04-02T10:27:44;102049.59;;;7.65;100.00
27334;BME280;14817;57.104;-2.094;2023-04-02T10:30:21;102049.66;;;7.49;100.00
27334;BME280;14817;57.104;-2.094;2023-04-02T10:32:59;102049.28;;;7.55;100.00
27334;BME280;14817;57.104;-2.094;2023-04-02T10:35:37;102061.00;;;7.52;100.00
27334;BME280;14817;57.104;-2.094;2023-04-02T10:38:40;102070.34;;;7.45;100.00
27334;BME280;14817;57.104;-2.094;2023-04-02T10:44:12;102079.25;;;7.15;100.00
27334;BME280;14817;57.104;-2.094;2023-04-02T10:51:57;102075.81;;;7.13;100.00
27334;BME280;14817;57.104;-2.094;2023-04-02T10:54:39;102077.25;;;7.33;100.00
27334;BME280;14817;57.104;-2.094;2023-04-02T11:02:50;102081.03;;;7.60;100.00
27334;BME280;14817;57.104;-2.094;2023-04-02T11:05:20;102079.31;;;7.73;100.00
27334;BME280;14817;57.104;-2.094;2023-04-02T11:08:10;102079.00;;;7.77;100.00
27334;BME280;14817;57.104;-2.094;2023-04-02T11:10:48;102085.97;;;7.80;100.00
27334;BME280;14817;57.104;-2.094;2023-04-02T11:16:02;102089.47;;;7.95;100.00
27334;BME280;14817;57.104;-2.094;2023-04-02T11:18:33;102085.56;;;7.86;100.00
27334;BME280;14817;57.104;-2.094;2023-04-02T11:21:06;102087.56;;;7.97;100.00
27334;BME280;14817;57.104;-2.094;2023-04-02T11:23:53;102093.91;;;8.23;100.00
27334;BME280;14817;57.104;-2.094;2023-04-02T11:26:31;102089.03;;;8.30;100.00
27334;BME280;14817;57.104;-2.094;2023-04-02T11:29:13;102094.28;;;8.17;100.00
27334;BME280;14817;57.104;-2.094;2023-04-02T11:31:41;102096.75;;;8.34;100.00
27334;BME280;14817;57.104;-2.094;2023-04-02T11:34:59;102101.22;;;8.34;100.00
27334;BME280;14817;57.104;-2.094;2023-04-02T11:37:01;102092.38;;;8.48;100.00
27334;BME280;14817;57.104;-2.094;2023-04-02T11:39:48;102099.00;;;8.82;100.00
27334;BME280;14817;57.104;-2.094;2023-04-02T11:42:23;102106.47;;;8.77;100.00
27334;BME280;14817;57.104;-2.094;2023-04-02T11:44:52;102116.16;;;8.65;100.00
27334;BME280;14817;57.104;-2.094;2023-04-02T11:47:23;102109.09;;;8.64;100.00
27334;BME280;14817;57.104;-2.094;2023-04-02T11:52:34;102109.59;;;8.84;100.00
27334;BME280;14817;57.104;-2.094;2023-04-02T11:55:16;102115.69;;;8.86;100.00
27334;BME280;14817;57.104;-2.094;2023-04-02T12:00:39;102111.06;;;8.75;100.00
27334;BME280;14817;57.104;-2.094;2023-04-02T12:09:17;102112.75;;;9.03;100.00
27334;BME280;14817;57.104;-2.094;2023-04-02T12:11:44;102116.69;;;8.97;100.00
27334;BME280;14817;57.104;-2.094;2023-04-02T12:17:23;102112.47;;;8.81;100.00
27334;BME280;14817;57.104;-2.094;2023-04-02T12:19:52;102123.72;;;8.86;100.00
27334;BME280;14817;57.104;-2.094;2023-04-02T12:22:25;102124.31;;;8.76;100.00
27334;BME280;14817;57.104;-2.094;2023-04-02T12:24:56;102125.41;;;8.87;100.00
27334;BME280;14817;57.104;-2.094;2023-04-02T12:27:26;102124.38;;;9.02;100.00
27334;BME280;14817;57.104;-2.094;2023-04-02T12:30:30;102128.41;;;9.22;100.00
27334;BME280;14817;57.104;-2.094;2023-04-02T12:32:56;102132.84;;;9.09;100.00
27334;BME280;14817;57.104;-2.094;2023-04-02T12:35:32;102144.75;;;9.17;100.00
27334;BME280;14817;57.104;-2.094;2023-04-02T12:37:59;102136.63;;;9.19;100.00
27334;BME280;14817;57.104;-2.094;2023-04-02T12:40:27;102135.03;;;8.89;100.00
27334;BME280;14817;57.104;-2.094;2023-04-02T12:42:54;102146.59;;;8.90;100.00
27334;BME280;14817;57.104;-2.094;2023-04-02T12:45:26;102144.72;;;8.77;100.00
27334;BME280;14817;57.104;-2.094;2023-04-02T12:47:56;102144.72;;;8.77;100.00
27334;BME280;14817;57.104;-2.094;2023-04-02T12:50:23;102143.03;;;8.89;100.00
27334;BME280;14817;57.104;-2.094;2023-04-02T12:52:52;102151.00;;;9.04;100.00
27334;BME280;14817;57.104;-2.094;2023-04-02T12:55:23;102157.06;;;8.93;100.00
27334;BME280;14817;57.104;-2.094;2023-04-02T12:57:55;102158.31;;;9.14;100.00
27334;BME280;14817;57.104;-2.094;2023-04-02T13:02:58;102162.94;;;8.98;100.00
27334;BME280;14817;57.104;-2.094;2023-04-02T13:05:50;102161.97;;;8.86;100.00
27334;BME280;14817;57.104;-2.094;2023-04-02T13:08:36;102159.06;;;8.89;100.00
27334;BME280;14817;57.104;-2.094;2023-04-02T13:11:04;102157.16;;;8.91;100.00
27334;BME280;14817;57.104;-2.094;2023-04-02T13:13:34;102164.69;;;8.99;100.00
27334;BME280;14817;57.104;-2.094;2023-04-02T13:18:35;102164.00;;;9.23;100.00
27334;BME280;14817;57.104;-2.094;2023-04-02T13:21:25;102167.25;;;9.40;100.00
27334;BME280;14817;57.104;-2.094;2023-04-02T13:23:55;102171.03;;;9.24;100.00
27334;BME280;14817;57.104;-2.094;2023-04-02T13:26:24;102165.75;;;9.49;100.00
27334;BME280;14817;57.104;-2.094;2023-04-02T13:29:18;102162.47;;;9.58;100.00
27334;BME280;14817;57.104;-2.094;2023-04-02T13:31:46;102166.28;;;9.42;100.00
27334;BME280;14817;57.104;-2.094;2023-04-02T13:34:13;102160.09;;;9.41;100.00
27334;BME280;14817;57.104;-2.094;2023-04-02T13:36:40;102167.78;;;9.33;100.00
27334;BME280;14817;57.104;-2.094;2023-04-02T13:39:07;102163.59;;;9.29;100.00
27334;BME280;14817;57.104;-2.094;2023-04-02T13:41:44;102163.72;;;9.53;100.00
27334;BME280;14817;57.104;-2.094;2023-04-02T13:44:20;102164.88;;;9.36;100.00
27334;BME280;14817;57.104;-2.094;2023-04-02T13:46:48;102164.63;;;9.13;100.00
27334;BME280;14817;57.104;-2.094;2023-04-02T13:49:15;102172.69;;;8.99;100.00
27334;BME280;14817;57.104;-2.094;2023-04-02T13:51:44;102166.59;;;8.97;100.00
27334;BME280;14817;57.104;-2.094;2023-04-02T13:54:54;102164.19;;;9.19;100.00
27334;BME280;14817;57.104;-2.094;2023-04-02T13:57:19;102159.41;;;9.25;100.00
27334;BME280;14817;57.104;-2.094;2023-04-02T13:59:49;102163.56;;;9.16;100.00
27334;BME280;14817;57.104;-2.094;2023-04-02T14:02:21;102170.06;;;9.12;100.00
27334;BME280;14817;57.104;-2.094;2023-04-02T14:04:54;102164.28;;;9.05;100.00
27334;BME280;14817;57.104;-2.094;2023-04-02T14:12:55;102154.53;;;9.04;100.00
27334;BME280;14817;57.104;-2.094;2023-04-02T14:35:02;102152.06;;;8.74;100.00
27334;BME280;14817;57.104;-2.094;2023-04-02T14:40:28;102155.31;;;8.79;100.00
27334;BME280;14817;57.104;-2.094;2023-04-02T14:48:23;102150.16;;;8.34;100.00
27334;BME280;14817;57.104;-2.094;2023-04-02T14:51:04;102158.41;;;8.58;100.00
27334;BME280;14817;57.104;-2.094;2023-04-02T14:56:13;102158.03;;;8.65;100.00
27334;BME280;14817;57.104;-2.094;2023-04-02T14:58:43;102156.13;;;8.67;100.00
27334;BME280;14817;57.104;-2.094;2023-04-02T15:01:35;102156.00;;;8.68;100.00
27334;BME280;14817;57.104;-2.094;2023-04-02T15:04:10;102149.25;;;8.63;100.00
27334;BME280;14817;57.104;-2.094;2023-04-02T15:06:43;102155.84;;;8.57;100.00
27334;BME280;14817;57.104;-2.094;2023-04-02T15:09:11;102153.94;;;8.45;100.00
27334;BME280;14817;57.104;-2.094;2023-04-02T15:11:45;102154.31;;;8.53;100.00
27334;BME280;14817;57.104;-2.094;2023-04-02T15:14:19;102143.66;;;8.53;100.00
27334;BME280;14817;57.104;-2.094;2023-04-02T15:16:47;102152.63;;;8.52;100.00
27334;BME280;14817;57.104;-2.094;2023-04-02T15:19:15;102144.34;;;8.42;100.00
27334;BME280;14817;57.104;-2.094;2023-04-02T15:22:06;102155.84;;;8.57;100.00
27334;BME280;14817;57.104;-2.094;2023-04-02T15:32:36;102171.28;;;8.37;100.00
27334;BME280;14817;57.104;-2.094;2023-04-02T15:40:56;102179.97;;;8.12;100.00
27334;BME280;14817;57.104;-2.094;2023-04-02T15:43:38;102189.59;;;7.86;100.00
27334;BME280;14817;57.104;-2.094;2023-04-02T15:54:01;102187.59;;;8.18;100.00
27334;BME280;14817;57.104;-2.094;2023-04-02T16:01:56;102198.00;;;8.09;100.00
27334;BME280;14817;57.104;-2.094;2023-04-02T16:04:41;102195.53;;;8.20;100.00
27334;BME280;14817;57.104;-2.094;2023-04-02T16:09:56;102197.41;;;8.04;100.00
27334;BME280;14817;57.104;-2.094;2023-04-02T16:12:28;102205.50;;;8.02;100.00
27334;BME280;14817;57.104;-2.094;2023-04-02T16:15:09;102198.16;;;7.77;100.00
27334;BME280;14817;57.104;-2.094;2023-04-02T16:17:41;102195.34;;;7.94;100.00
27334;BME280;14817;57.104;-2.094;2023-04-02T16:20:25;102206.28;;;8.04;100.00
27334;BME280;14817;57.104;-2.094;2023-04-02T16:23:03;102198.28;;;8.04;100.00
27334;BME280;14817;57.104;-2.094;2023-04-02T16:28:22;102200.09;;;8.04;100.00
27334;BME280;14817;57.104;-2.094;2023-04-02T16:39:21;102207.72;;;7.81;100.00
27334;BME280;14817;57.104;-2.094;2023-04-02T16:42:03;102208.06;;;7.75;100.00
27334;BME280;14817;57.104;-2.094;2023-04-02T16:44:36;102203.03;;;7.85;100.00
27334;BME280;14817;57.104;-2.094;2023-04-02T16:52:56;102205.94;;;7.66;100.00
27334;BME280;14817;57.104;-2.094;2023-04-02T16:58:37;102213.94;;;7.66;100.00
27334;BME280;14817;57.104;-2.094;2023-04-02T17:07:09;102202.88;;;7.27;100.00
27334;BME280;14817;57.104;-2.094;2023-04-02T17:09:49;102203.41;;;7.18;100.00
27334;BME280;14817;57.104;-2.094;2023-04-02T17:12:22;102204.81;;;7.09;100.00
27334;BME280;14817;57.104;-2.094;2023-04-02T17:15:08;102207.28;;;7.12;100.00
27334;BME280;14817;57.104;-2.094;2023-04-02T17:17:55;102204.31;;;7.03;100.00